• Join FlightAware (Why Join?)
  • Login
  • US Flag 
11:54AM EDT


 

Airport Tracker/Info


-or-


 

Live Flight TrackerFlight Track Log ✈ SWA655 ✈ 26-Oct-2013 ✈ KMCI - KDAL

Flight Track Log - Related Links

Times and Time Zones

All times are in EDT time to prevent confusion due to time zone crossing. See the SWA655 flight status page for this flight to view local times or setup timezone preferences in your user account.

Time Position Orientation Groundspeed Altitude Reporting Facility
EDT Latitude Longitude Course Direction KTS MPH feet Rate Location/Type
01:59PM 39.3167 -94.7167 360° North 147 169 1,700  Level Kansas City TRACON
01:59PM 39.3333 -94.7167 360° North 157 181 2,800 3,000 Climbing Kansas City TRACON
02:00PM 39.3500 -94.7833 288° West 215 247 6,500 3,300 Climbing Kansas City TRACON
02:01PM 39.3267 -94.8775 252° West 213 245 10,500 3,000 Climbing Kansas City Center
02:02PM 39.3136 -94.9794 261° West 301 346 13,400 2,160 Climbing Kansas City Center
02:03PM 39.2786 -95.0781 245° Southwest 334 384 15,000 720 Climbing Kansas City Center
02:05PM 39.1656 -95.1028 190° South 362 417 15,000 1,080 Level Kansas City Center
02:06PM 39.0786 -95.1614 208° Southwest 349 402 17,300 2,460 Climbing Kansas City Center
02:07PM 39.0233 -95.2633 235° Southwest 354 407 20,100 2,700 Climbing Kansas City Center
02:08PM 38.9458 -95.3611 224° Southwest 385 443 22,900 2,640 Climbing Kansas City Center
02:09PM 38.8697 -95.4569 224° Southwest 397 457 25,600 2,460 Climbing Kansas City Center
02:10PM 38.7786 -95.5750 225° Southwest 413 475 28,100 2,160 Climbing Kansas City Center
02:11PM 38.6953 -95.6794 224° Southwest 435 501 30,100 2,280 Climbing Kansas City Center
02:12PM 38.6003 -95.8008 225° Southwest 433 498 32,900 2,280 Climbing Kansas City Center
02:13PM 38.5169 -95.9017 223° Southwest 430 495 34,900 1,260 Climbing Kansas City Center
02:14PM 38.4233 -96.0206 225° Southwest 427 491 35,600 480 Climbing Kansas City Center
02:15PM 38.3425 -96.1211 224° Southwest 424 488 36,000 180 Climbing Kansas City Center
02:16PM 38.2489 -96.2356 224° Southwest 418 481 36,000  Level Kansas City Center
02:17PM 38.1628 -96.3442 225° Southwest 423 487 36,000  Level Kansas City Center
02:18PM 38.0764 -96.4503 224° Southwest 430 495 36,000  Level Kansas City Center
02:19PM 37.9886 -96.5572 224° Southwest 436 502 36,000  Level Kansas City Center
02:20PM 37.9014 -96.6636 224° Southwest 434 499 36,000  Level Kansas City Center
02:21PM 37.8139 -96.7703 224° Southwest 435 501 36,000  Level Kansas City Center
02:22PM 37.7267 -96.8767 224° Southwest 433 498 36,000  Level Kansas City Center
02:23PM 37.6392 -96.9811 223° Southwest 432 497 36,000  Level Kansas City Center
02:24PM 37.5342 -97.1069 224° Southwest 432 497 36,000  Level Kansas City Center
02:25PM 37.4472 -97.2133 224° Southwest 433 498 36,000  Level Kansas City Center
02:26PM 37.3586 -97.3164 223° Southwest 433 498 36,000  Level Kansas City Center
02:27PM 37.2697 -97.4228 224° Southwest 435 501 36,000  Level Kansas City Center
02:28PM 37.1814 -97.5264 223° Southwest 435 501 36,000  Level Kansas City Center
02:29PM 37.0917 -97.6331 223° Southwest 440 506 36,000  Level Kansas City Center
02:30PM 37.0025 -97.7406 224° Southwest 442 509 36,000  Level Kansas City Center
02:31PM 36.9108 -97.8447 222° Southwest 444 511 36,000  Level Kansas City Center
02:32PM 36.8014 -97.9725 223° Southwest 441 507 36,000  Level Kansas City Center
02:33PM 36.7136 -98.0767 224° Southwest 436 502 36,000  Level Kansas City Center
02:34PM 36.6244 -98.1789 223° Southwest 434 499 36,000  Level Kansas City Center
02:36PM 36.5361 -98.2814 223° Southwest 433 498 36,000  Level Kansas City Center
02:37PM 36.4511 -98.3853 225° Southwest 430 495 36,000  Level Kansas City Center
02:38PM 36.3636 -98.4861 223° Southwest 428 493 36,000  Level Kansas City Center
02:39PM 36.2750 -98.5875 223° Southwest 430 495 36,000  Level Kansas City Center
02:40PM 36.1861 -98.6894 223° Southwest 432 497 36,000  Level Kansas City Center
02:41PM 36.0633 -98.7522 202° Southwest 436 502 36,000  Level Kansas City Center
02:42PM 35.9392 -98.7417 176° South 446 513 36,000  Level Kansas City Center
02:43PM 35.8156 -98.7331 177° South 446 513 36,000  Level Kansas City Center
02:44PM 35.6789 -98.7231 177° South 446 513 36,000  Level Kansas City Center
02:45PM 35.5536 -98.7133 176° South 446 513 36,000  Level Kansas City Center
02:46PM 35.4314 -98.7039 176° South 443 510 36,000  Level Fort Worth Center
02:47PM 35.3092 -98.6933 176° South 440 506 36,000  Level Fort Worth Center
02:48PM 35.1864 -98.6853 177° South 439 505 36,000  Level Fort Worth Center
02:49PM 35.0628 -98.6753 176° South 440 506 36,000  Level Fort Worth Center
02:50PM 34.9158 -98.6642 176° South 439 505 36,000  Level Fort Worth Center
02:51PM 34.7933 -98.6561 177° South 439 505 36,000  Level Fort Worth Center
02:52PM 34.6706 -98.6461 176° South 439 505 36,000  Level Fort Worth Center
02:53PM 34.5483 -98.6378 177° South 438 504 36,000  Level Fort Worth Center
02:54PM 34.4244 -98.6278 176° South 441 507 36,000 -300 Level Fort Worth Center
02:55PM 34.3017 -98.6169 176° South 442 509 35,400 -1,260 Descending Fort Worth Center
02:56PM 34.2006 -98.5269 144° Southeast 467 537 33,500 -2,220 Descending Fort Worth Center
02:57PM 34.1069 -98.4094 134° Southeast 465 535 30,900 -2,460 Descending Fort Worth Center
02:58PM 34.0131 -98.3058 138° Southeast 451 519 28,500 -2,520 Descending Fort Worth Center
02:59PM 33.9100 -98.1894 137° Southeast 435 501 25,800 -2,220 Descending Fort Worth Center
03:00PM 33.8261 -98.0944 137° Southeast 419 482 24,000 -1,500 Descending Fort Worth Center
03:01PM 33.7439 -97.9917 134° Southeast 409 471 22,800 -1,740 Descending Fort Worth Center
03:02PM 33.6789 -97.8714 123° Southeast 408 470 20,500 -2,280 Descending Fort Worth Center
03:03PM 33.6197 -97.7544 121° Southeast 394 453 18,200 -2,040 Descending Fort Worth Center
03:04PM 33.6078 -97.6317 97° East 386 444 16,400 -1,320 Descending Fort Worth Center
03:05PM 33.6072 -97.5050 90° East 374 430 15,500 -900 Descending Fort Worth Center
03:06PM 33.6092 -97.3703 89° East 372 428 14,600 -1,080 Descending Fort Worth Center
03:07PM 33.5911 -97.2636 101° East 333 383 13,400 -1,560 Descending Fort Worth Center
03:08PM 33.5339 -97.1825 130° Southeast 309 356 11,500 -1,860 Descending Fort Worth Center
03:10PM 33.4869 -97.1053 126° Southeast 288 331 9,600 -1,980 Descending Fort Worth Center
03:11PM 33.4717 -97.0017 100° East 302 348 7,500 -1,920 Descending Fort Worth Center
03:12PM 33.4206 -96.9308 131° Southeast 281 323 5,700 -1,620 Descending Fort Worth Center
03:13PM 33.3678 -96.8639 133° Southeast 277 319 4,200 -840 Descending Fort Worth Center
03:14PM 33.3025 -96.8161 149° Southeast 257 296 4,000 -120 Descending Fort Worth Center
03:15PM 33.2489 -96.7906 158° South 222 255 4,000 -60 Level Fort Worth Center
03:16PM 33.1900 -96.8028 190° South 203 234 3,900 -540 Descending Fort Worth Center
03:17PM 33.1350 -96.8161 191° South 202 232 3,000 -480 Descending Fort Worth Center
03:18PM 33.0844 -96.8386 200° South 196 226 3,000  Level Fort Worth Center
03:19PM 33.0381 -96.8794 216° Southwest 199 229 3,000  Level Fort Worth Center
03:20PM 32.9869 -96.9006 199° South 204 235 3,000 -300 Level Fort Worth Center
03:21PM 32.9292 -96.9050 184° South 193 222 2,500 -540 Descending Fort Worth Center
03:22PM 32.8894 -96.9075 183° South 147 169 1,900 -840 Descending Fort Worth Center
03:23PM 32.8667 -96.8667 124° Southeast 130 150 800 -960 Descending Dallas / Fort Worth TRACON